sensor_id;sensor_type;location;lat;lon;timestamp;P1;durP1;ratioP1;P2;durP2;ratioP2
10715;SDS011;5409;42.620;23.316;2023-04-15T00:02:14;2.85;;;2.65;;
10715;SDS011;5409;42.620;23.316;2023-04-15T00:04:42;2.42;;;2.13;;
10715;SDS011;5409;42.620;23.316;2023-04-15T00:07:09;4.50;;;2.45;;
10715;SDS011;5409;42.620;23.316;2023-04-15T00:09:37;3.85;;;2.45;;
10715;SDS011;5409;42.620;23.316;2023-04-15T00:12:04;2.97;;;2.72;;
10715;SDS011;5409;42.620;23.316;2023-04-15T00:14:32;3.67;;;3.28;;
10715;SDS011;5409;42.620;23.316;2023-04-15T00:17:00;3.55;;;3.25;;
10715;SDS011;5409;42.620;23.316;2023-04-15T00:19:27;2.28;;;2.08;;
10715;SDS011;5409;42.620;23.316;2023-04-15T00:21:57;3.31;;;2.39;;
10715;SDS011;5409;42.620;23.316;2023-04-15T00:24:24;4.43;;;2.70;;
10715;SDS011;5409;42.620;23.316;2023-04-15T00:26:52;4.45;;;3.17;;
10715;SDS011;5409;42.620;23.316;2023-04-15T00:29:19;5.25;;;2.60;;
10715;SDS011;5409;42.620;23.316;2023-04-15T00:31:45;6.88;;;3.33;;
10715;SDS011;5409;42.620;23.316;2023-04-15T00:34:12;4.25;;;3.10;;
10715;SDS011;5409;42.620;23.316;2023-04-15T00:36:39;2.80;;;2.38;;
10715;SDS011;5409;42.620;23.316;2023-04-15T00:39:06;4.25;;;3.50;;
10715;SDS011;5409;42.620;23.316;2023-04-15T00:41:33;5.13;;;3.20;;
10715;SDS011;5409;42.620;23.316;2023-04-15T00:44:04;3.58;;;2.72;;
10715;SDS011;5409;42.620;23.316;2023-04-15T00:46:32;2.47;;;2.22;;
10715;SDS011;5409;42.620;23.316;2023-04-15T00:49:01;3.47;;;2.38;;
10715;SDS011;5409;42.620;23.316;2023-04-15T00:51:29;4.65;;;2.53;;
10715;SDS011;5409;42.620;23.316;2023-04-15T00:53:57;3.50;;;2.70;;
10715;SDS011;5409;42.620;23.316;2023-04-15T00:56:24;3.53;;;2.40;;
10715;SDS011;5409;42.620;23.316;2023-04-15T00:58:52;4.15;;;2.40;;
10715;SDS011;5409;42.620;23.316;2023-04-15T01:01:20;3.25;;;2.67;;
10715;SDS011;5409;42.620;23.316;2023-04-15T01:03:48;4.07;;;2.42;;
10715;SDS011;5409;42.620;23.316;2023-04-15T01:06:15;3.75;;;2.78;;
10715;SDS011;5409;42.620;23.316;2023-04-15T01:08:42;3.42;;;2.22;;
10715;SDS011;5409;42.620;23.316;2023-04-15T01:11:11;5.53;;;2.33;;
10715;SDS011;5409;42.620;23.316;2023-04-15T01:13:38;2.97;;;2.30;;
10715;SDS011;5409;42.620;23.316;2023-04-15T01:16:06;6.95;;;1.88;;
10715;SDS011;5409;42.620;23.316;2023-04-15T01:18:34;2.45;;;2.25;;
10715;SDS011;5409;42.620;23.316;2023-04-15T01:21:01;3.63;;;2.28;;
10715;SDS011;5409;42.620;23.316;2023-04-15T01:23:30;3.13;;;2.25;;
10715;SDS011;5409;42.620;23.316;2023-04-15T01:25:58;2.83;;;2.55;;
10715;SDS011;5409;42.620;23.316;2023-04-15T01:28:25;3.85;;;2.90;;
10715;SDS011;5409;42.620;23.316;2023-04-15T01:31:03;4.18;;;3.38;;
10715;SDS011;5409;42.620;23.316;2023-04-15T01:33:31;5.97;;;3.03;;
10715;SDS011;5409;42.620;23.316;2023-04-15T01:35:58;6.45;;;4.10;;
10715;SDS011;5409;42.620;23.316;2023-04-15T01:38:25;4.22;;;3.83;;
10715;SDS011;5409;42.620;23.316;2023-04-15T01:40:52;7.28;;;4.63;;
10715;SDS011;5409;42.620;23.316;2023-04-15T01:43:21;4.30;;;3.88;;
10715;SDS011;5409;42.620;23.316;2023-04-15T01:45:47;4.75;;;3.75;;
10715;SDS011;5409;42.620;23.316;2023-04-15T01:48:14;4.35;;;3.95;;
10715;SDS011;5409;42.620;23.316;2023-04-15T01:50:42;4.57;;;3.75;;
10715;SDS011;5409;42.620;23.316;2023-04-15T01:53:08;4.18;;;3.72;;
10715;SDS011;5409;42.620;23.316;2023-04-15T01:55:35;5.97;;;3.88;;
10715;SDS011;5409;42.620;23.316;2023-04-15T01:58:02;3.85;;;3.22;;
10715;SDS011;5409;42.620;23.316;2023-04-15T02:00:30;3.90;;;3.30;;
10715;SDS011;5409;42.620;23.316;2023-04-15T02:02:57;4.18;;;2.63;;
10715;SDS011;5409;42.620;23.316;2023-04-15T02:05:24;3.63;;;3.08;;
10715;SDS011;5409;42.620;23.316;2023-04-15T02:07:51;3.28;;;2.42;;
10715;SDS011;5409;42.620;23.316;2023-04-15T02:10:18;6.50;;;2.58;;
10715;SDS011;5409;42.620;23.316;2023-04-15T02:12:45;4.20;;;2.92;;
10715;SDS011;5409;42.620;23.316;2023-04-15T02:15:12;6.25;;;2.28;;
10715;SDS011;5409;42.620;23.316;2023-04-15T02:17:41;3.50;;;2.70;;
10715;SDS011;5409;42.620;23.316;2023-04-15T02:20:10;5.00;;;2.60;;
10715;SDS011;5409;42.620;23.316;2023-04-15T02:22:37;6.70;;;2.65;;
10715;SDS011;5409;42.620;23.316;2023-04-15T02:25:04;3.47;;;2.30;;
10715;SDS011;5409;42.620;23.316;2023-04-15T02:27:32;7.07;;;2.33;;
10715;SDS011;5409;42.620;23.316;2023-04-15T02:29:59;4.72;;;2.67;;
10715;SDS011;5409;42.620;23.316;2023-04-15T02:32:25;3.92;;;2.35;;
10715;SDS011;5409;42.620;23.316;2023-04-15T02:34:54;4.82;;;2.17;;
10715;SDS011;5409;42.620;23.316;2023-04-15T02:37:21;3.53;;;2.28;;
10715;SDS011;5409;42.620;23.316;2023-04-15T02:39:48;2.30;;;2.10;;
10715;SDS011;5409;42.620;23.316;2023-04-15T02:42:15;3.03;;;2.10;;
10715;SDS011;5409;42.620;23.316;2023-04-15T02:44:42;2.00;;;1.90;;
10715;SDS011;5409;42.620;23.316;2023-04-15T02:47:08;2.40;;;2.20;;
10715;SDS011;5409;42.620;23.316;2023-04-15T02:49:36;3.15;;;2.00;;
10715;SDS011;5409;42.620;23.316;2023-04-15T02:52:04;2.30;;;1.77;;
10715;SDS011;5409;42.620;23.316;2023-04-15T02:54:31;2.63;;;2.10;;
10715;SDS011;5409;42.620;23.316;2023-04-15T02:56:58;2.17;;;1.98;;
10715;SDS011;5409;42.620;23.316;2023-04-15T02:59:25;2.35;;;2.10;;
10715;SDS011;5409;42.620;23.316;2023-04-15T03:01:52;2.50;;;1.70;;
10715;SDS011;5409;42.620;23.316;2023-04-15T03:04:20;2.08;;;1.90;;
10715;SDS011;5409;42.620;23.316;2023-04-15T03:06:47;2.15;;;1.90;;
10715;SDS011;5409;42.620;23.316;2023-04-15T03:09:15;2.00;;;1.77;;
10715;SDS011;5409;42.620;23.316;2023-04-15T03:11:42;2.13;;;2.03;;
10715;SDS011;5409;42.620;23.316;2023-04-15T03:14:08;1.73;;;1.60;;
10715;SDS011;5409;42.620;23.316;2023-04-15T03:16:35;2.08;;;1.88;;
10715;SDS011;5409;42.620;23.316;2023-04-15T03:19:02;4.97;;;1.48;;
10715;SDS011;5409;42.620;23.316;2023-04-15T03:21:29;2.15;;;1.75;;
10715;SDS011;5409;42.620;23.316;2023-04-15T03:23:58;2.42;;;1.70;;
10715;SDS011;5409;42.620;23.316;2023-04-15T03:26:27;3.50;;;2.00;;
10715;SDS011;5409;42.620;23.316;2023-04-15T03:28:55;3.20;;;1.95;;
10715;SDS011;5409;42.620;23.316;2023-04-15T03:31:22;3.53;;;1.77;;
10715;SDS011;5409;42.620;23.316;2023-04-15T03:33:49;3.55;;;2.13;;
10715;SDS011;5409;42.620;23.316;2023-04-15T03:36:16;2.10;;;1.90;;
10715;SDS011;5409;42.620;23.316;2023-04-15T03:38:42;2.65;;;1.70;;
10715;SDS011;5409;42.620;23.316;2023-04-15T03:41:09;1.77;;;1.50;;
10715;SDS011;5409;42.620;23.316;2023-04-15T03:43:38;4.38;;;2.20;;
10715;SDS011;5409;42.620;23.316;2023-04-15T03:46:05;2.15;;;1.70;;
10715;SDS011;5409;42.620;23.316;2023-04-15T03:48:32;4.20;;;2.00;;
10715;SDS011;5409;42.620;23.316;2023-04-15T03:50:58;1.80;;;1.65;;
10715;SDS011;5409;42.620;23.316;2023-04-15T03:53:25;3.80;;;1.73;;
10715;SDS011;5409;42.620;23.316;2023-04-15T03:55:52;4.57;;;1.70;;
10715;SDS011;5409;42.620;23.316;2023-04-15T03:58:18;4.78;;;2.97;;
10715;SDS011;5409;42.620;23.316;2023-04-15T04:00:46;2.65;;;2.20;;
10715;SDS011;5409;42.620;23.316;2023-04-15T04:03:13;2.90;;;2.42;;
10715;SDS011;5409;42.620;23.316;2023-04-15T04:05:40;2.83;;;2.17;;
10715;SDS011;5409;42.620;23.316;2023-04-15T04:08:08;3.90;;;2.30;;
10715;SDS011;5409;42.620;23.316;2023-04-15T04:10:37;4.00;;;2.15;;
10715;SDS011;5409;42.620;23.316;2023-04-15T04:13:04;2.33;;;2.13;;
10715;SDS011;5409;42.620;23.316;2023-04-15T04:15:31;5.22;;;2.10;;
10715;SDS011;5409;42.620;23.316;2023-04-15T04:17:59;3.78;;;1.80;;
10715;SDS011;5409;42.620;23.316;2023-04-15T04:20:26;2.28;;;1.92;;
10715;SDS011;5409;42.620;23.316;2023-04-15T04:22:52;2.35;;;2.13;;
10715;SDS011;5409;42.620;23.316;2023-04-15T04:25:19;3.38;;;1.88;;
10715;SDS011;5409;42.620;23.316;2023-04-15T04:27:46;1.65;;;1.55;;
10715;SDS011;5409;42.620;23.316;2023-04-15T04:30:13;1.60;;;1.50;;
10715;SDS011;5409;42.620;23.316;2023-04-15T04:32:40;5.40;;;1.88;;
10715;SDS011;5409;42.620;23.316;2023-04-15T04:35:08;3.40;;;2.10;;
10715;SDS011;5409;42.620;23.316;2023-04-15T04:37:35;2.67;;;2.00;;
10715;SDS011;5409;42.620;23.316;2023-04-15T04:40:02;2.58;;;2.08;;
10715;SDS011;5409;42.620;23.316;2023-04-15T04:42:29;7.35;;;2.22;;
10715;SDS011;5409;42.620;23.316;2023-04-15T04:44:56;5.40;;;2.58;;
10715;SDS011;5409;42.620;23.316;2023-04-15T04:47:23;2.00;;;1.80;;
10715;SDS011;5409;42.620;23.316;2023-04-15T04:49:49;2.40;;;2.17;;
10715;SDS011;5409;42.620;23.316;2023-04-15T04:52:17;4.68;;;2.60;;
10715;SDS011;5409;42.620;23.316;2023-04-15T04:54:44;7.50;;;2.90;;
10715;SDS011;5409;42.620;23.316;2023-04-15T04:57:11;4.72;;;3.17;;
10715;SDS011;5409;42.620;23.316;2023-04-15T04:59:38;4.45;;;3.08;;
10715;SDS011;5409;42.620;23.316;2023-04-15T05:02:05;6.13;;;3.33;;
10715;SDS011;5409;42.620;23.316;2023-04-15T05:04:32;7.40;;;3.88;;
10715;SDS011;5409;42.620;23.316;2023-04-15T05:06:59;5.45;;;4.25;;
10715;SDS011;5409;42.620;23.316;2023-04-15T05:09:27;6.20;;;4.60;;
10715;SDS011;5409;42.620;23.316;2023-04-15T05:11:56;6.38;;;4.13;;
10715;SDS011;5409;42.620;23.316;2023-04-15T05:14:23;5.85;;;4.72;;
10715;SDS011;5409;42.620;23.316;2023-04-15T05:16:50;8.45;;;5.47;;
10715;SDS011;5409;42.620;23.316;2023-04-15T05:19:16;9.40;;;6.22;;
10715;SDS011;5409;42.620;23.316;2023-04-15T05:21:43;7.60;;;5.78;;
10715;SDS011;5409;42.620;23.316;2023-04-15T05:24:10;8.43;;;6.10;;
10715;SDS011;5409;42.620;23.316;2023-04-15T05:26:38;8.75;;;6.53;;
10715;SDS011;5409;42.620;23.316;2023-04-15T05:29:05;10.27;;;6.40;;
10715;SDS011;5409;42.620;23.316;2023-04-15T05:31:31;12.35;;;6.20;;
10715;SDS011;5409;42.620;23.316;2023-04-15T05:33:58;8.45;;;5.95;;
10715;SDS011;5409;42.620;23.316;2023-04-15T05:36:25;9.85;;;5.65;;
10715;SDS011;5409;42.620;23.316;2023-04-15T05:38:52;9.50;;;6.10;;
10715;SDS011;5409;42.620;23.316;2023-04-15T05:41:19;8.77;;;5.75;;
10715;SDS011;5409;42.620;23.316;2023-04-15T05:43:47;6.35;;;5.40;;
10715;SDS011;5409;42.620;23.316;2023-04-15T05:46:14;7.85;;;5.10;;
10715;SDS011;5409;42.620;23.316;2023-04-15T05:48:41;5.00;;;4.50;;
10715;SDS011;5409;42.620;23.316;2023-04-15T05:51:07;7.78;;;3.75;;
10715;SDS011;5409;42.620;23.316;2023-04-15T05:53:35;6.32;;;3.83;;
10715;SDS011;5409;42.620;23.316;2023-04-15T05:56:01;7.95;;;4.07;;
10715;SDS011;5409;42.620;23.316;2023-04-15T05:58:28;5.15;;;3.97;;
10715;SDS011;5409;42.620;23.316;2023-04-15T06:00:57;5.57;;;3.40;;
10715;SDS011;5409;42.620;23.316;2023-04-15T06:03:24;4.68;;;3.63;;
10715;SDS011;5409;42.620;23.316;2023-04-15T06:05:50;6.45;;;4.70;;
10715;SDS011;5409;42.620;23.316;2023-04-15T06:08:17;7.00;;;5.38;;
10715;SDS011;5409;42.620;23.316;2023-04-15T06:10:44;9.48;;;5.43;;
10715;SDS011;5409;42.620;23.316;2023-04-15T06:13:10;6.47;;;4.68;;
10715;SDS011;5409;42.620;23.316;2023-04-15T06:15:38;5.93;;;4.68;;
10715;SDS011;5409;42.620;23.316;2023-04-15T06:18:06;8.13;;;4.88;;
10715;SDS011;5409;42.620;23.316;2023-04-15T06:20:33;8.57;;;4.13;;
10715;SDS011;5409;42.620;23.316;2023-04-15T06:23:00;8.27;;;4.00;;
10715;SDS011;5409;42.620;23.316;2023-04-15T06:25:27;6.93;;;3.67;;
10715;SDS011;5409;42.620;23.316;2023-04-15T06:27:54;4.95;;;3.33;;
10715;SDS011;5409;42.620;23.316;2023-04-15T06:30:20;4.32;;;2.90;;
10715;SDS011;5409;42.620;23.316;2023-04-15T06:32:47;3.92;;;2.65;;
10715;SDS011;5409;42.620;23.316;2023-04-15T06:35:15;7.35;;;3.80;;
10715;SDS011;5409;42.620;23.316;2023-04-15T06:37:42;7.75;;;4.20;;
10715;SDS011;5409;42.620;23.316;2023-04-15T06:40:09;7.10;;;3.60;;
10715;SDS011;5409;42.620;23.316;2023-04-15T06:42:36;5.70;;;3.83;;
10715;SDS011;5409;42.620;23.316;2023-04-15T06:45:03;4.47;;;3.58;;
10715;SDS011;5409;42.620;23.316;2023-04-15T06:47:31;4.35;;;3.67;;
10715;SDS011;5409;42.620;23.316;2023-04-15T06:49:57;4.65;;;3.67;;
10715;SDS011;5409;42.620;23.316;2023-04-15T06:52:25;7.75;;;3.67;;
10715;SDS011;5409;42.620;23.316;2023-04-15T06:54:52;8.27;;;3.47;;
10715;SDS011;5409;42.620;23.316;2023-04-15T06:57:19;4.85;;;3.78;;
10715;SDS011;5409;42.620;23.316;2023-04-15T06:59:45;5.82;;;3.42;;
10715;SDS011;5409;42.620;23.316;2023-04-15T07:02:12;6.82;;;3.80;;
10715;SDS011;5409;42.620;23.316;2023-04-15T07:04:39;8.10;;;3.25;;
10715;SDS011;5409;42.620;23.316;2023-04-15T07:07:06;7.88;;;3.50;;
10715;SDS011;5409;42.620;23.316;2023-04-15T07:09:34;6.32;;;3.38;;
10715;SDS011;5409;42.620;23.316;2023-04-15T07:12:01;7.47;;;3.40;;
10715;SDS011;5409;42.620;23.316;2023-04-15T07:14:28;7.13;;;3.10;;
10715;SDS011;5409;42.620;23.316;2023-04-15T07:16:55;6.07;;;3.40;;
10715;SDS011;5409;42.620;23.316;2023-04-15T07:19:22;7.15;;;2.97;;
10715;SDS011;5409;42.620;23.316;2023-04-15T07:21:48;5.13;;;2.75;;
10715;SDS011;5409;42.620;23.316;2023-04-15T07:24:15;3.05;;;2.58;;
10715;SDS011;5409;42.620;23.316;2023-04-15T07:26:45;6.20;;;2.70;;
10715;SDS011;5409;42.620;23.316;2023-04-15T07:29:11;4.25;;;2.17;;
10715;SDS011;5409;42.620;23.316;2023-04-15T07:31:38;4.85;;;2.58;;
10715;SDS011;5409;42.620;23.316;2023-04-15T07:34:06;4.55;;;2.47;;
10715;SDS011;5409;42.620;23.316;2023-04-15T07:36:32;5.97;;;2.45;;
10715;SDS011;5409;42.620;23.316;2023-04-15T07:38:59;5.78;;;2.40;;
10715;SDS011;5409;42.620;23.316;2023-04-15T07:41:28;2.67;;;2.08;;
10715;SDS011;5409;42.620;23.316;2023-04-15T07:43:56;4.70;;;2.80;;
10715;SDS011;5409;42.620;23.316;2023-04-15T07:46:23;6.38;;;2.78;;
10715;SDS011;5409;42.620;23.316;2023-04-15T07:48:51;3.20;;;2.25;;
10715;SDS011;5409;42.620;23.316;2023-04-15T07:51:18;5.80;;;2.67;;
10715;SDS011;5409;42.620;23.316;2023-04-15T07:53:46;8.50;;;2.83;;
10715;SDS011;5409;42.620;23.316;2023-04-15T07:56:13;4.18;;;2.65;;
10715;SDS011;5409;42.620;23.316;2023-04-15T07:58:40;6.50;;;2.90;;
10715;SDS011;5409;42.620;23.316;2023-04-15T08:01:08;3.53;;;2.28;;
10715;SDS011;5409;42.620;23.316;2023-04-15T08:03:35;4.95;;;2.53;;
10715;SDS011;5409;42.620;23.316;2023-04-15T08:06:02;3.10;;;2.40;;
10715;SDS011;5409;42.620;23.316;2023-04-15T08:08:29;2.60;;;2.03;;
10715;SDS011;5409;42.620;23.316;2023-04-15T08:10:56;3.83;;;2.25;;
10715;SDS011;5409;42.620;23.316;2023-04-15T08:13:24;3.83;;;1.83;;
10715;SDS011;5409;42.620;23.316;2023-04-15T08:15:52;3.70;;;1.92;;
10715;SDS011;5409;42.620;23.316;2023-04-15T08:18:40;5.60;;;2.05;;
10715;SDS011;5409;42.620;23.316;2023-04-15T08:21:06;3.35;;;2.00;;
10715;SDS011;5409;42.620;23.316;2023-04-15T08:23:33;2.38;;;1.98;;
10715;SDS011;5409;42.620;23.316;2023-04-15T08:26:00;3.95;;;2.20;;
10715;SDS011;5409;42.620;23.316;2023-04-15T08:28:27;4.63;;;1.90;;
10715;SDS011;5409;42.620;23.316;2023-04-15T08:30:53;3.13;;;2.20;;
10715;SDS011;5409;42.620;23.316;2023-04-15T08:33:20;4.82;;;2.60;;
10715;SDS011;5409;42.620;23.316;2023-04-15T08:35:48;3.55;;;2.33;;
10715;SDS011;5409;42.620;23.316;2023-04-15T08:38:15;6.35;;;2.50;;
10715;SDS011;5409;42.620;23.316;2023-04-15T08:40:43;4.68;;;2.35;;
10715;SDS011;5409;42.620;23.316;2023-04-15T08:43:12;7.22;;;2.45;;
10715;SDS011;5409;42.620;23.316;2023-04-15T08:45:49;5.47;;;1.95;;
10715;SDS011;5409;42.620;23.316;2023-04-15T08:48:16;3.22;;;2.00;;
10715;SDS011;5409;42.620;23.316;2023-04-15T08:50:44;2.63;;;1.50;;
10715;SDS011;5409;42.620;23.316;2023-04-15T08:53:13;3.45;;;1.45;;
10715;SDS011;5409;42.620;23.316;2023-04-15T08:55:41;3.20;;;1.80;;
10715;SDS011;5409;42.620;23.316;2023-04-15T08:58:10;3.78;;;1.58;;
10715;SDS011;5409;42.620;23.316;2023-04-15T09:00:37;1.50;;;0.80;;
10715;SDS011;5409;42.620;23.316;2023-04-15T09:03:04;1.60;;;0.95;;
10715;SDS011;5409;42.620;23.316;2023-04-15T09:05:32;2.83;;;1.42;;
10715;SDS011;5409;42.620;23.316;2023-04-15T09:07:59;2.28;;;1.40;;
10715;SDS011;5409;42.620;23.316;2023-04-15T09:10:28;4.13;;;2.00;;
10715;SDS011;5409;42.620;23.316;2023-04-15T09:12:55;3.13;;;1.42;;
10715;SDS011;5409;42.620;23.316;2023-04-15T09:15:22;1.38;;;0.90;;
10715;SDS011;5409;42.620;23.316;2023-04-15T09:17:50;0.88;;;0.77;;
10715;SDS011;5409;42.620;23.316;2023-04-15T09:20:17;1.15;;;0.80;;
10715;SDS011;5409;42.620;23.316;2023-04-15T09:22:44;3.55;;;1.48;;
10715;SDS011;5409;42.620;23.316;2023-04-15T09:25:24;1.67;;;1.20;;
10715;SDS011;5409;42.620;23.316;2023-04-15T09:27:53;1.65;;;1.05;;
10715;SDS011;5409;42.620;23.316;2023-04-15T09:30:21;1.02;;;0.82;;
10715;SDS011;5409;42.620;23.316;2023-04-15T09:32:49;1.20;;;1.10;;
10715;SDS011;5409;42.620;23.316;2023-04-15T09:35:16;3.63;;;1.40;;
10715;SDS011;5409;42.620;23.316;2023-04-15T09:37:43;3.03;;;1.27;;
10715;SDS011;5409;42.620;23.316;2023-04-15T09:40:10;4.00;;;1.52;;
10715;SDS011;5409;42.620;23.316;2023-04-15T09:42:45;1.40;;;1.20;;
10715;SDS011;5409;42.620;23.316;2023-04-15T09:45:21;1.60;;;1.13;;
10715;SDS011;5409;42.620;23.316;2023-04-15T09:47:49;1.35;;;0.70;;
10715;SDS011;5409;42.620;23.316;2023-04-15T09:50:17;1.25;;;0.80;;
10715;SDS011;5409;42.620;23.316;2023-04-15T09:52:44;4.32;;;0.70;;
10715;SDS011;5409;42.620;23.316;2023-04-15T09:55:12;1.77;;;0.80;;
10715;SDS011;5409;42.620;23.316;2023-04-15T09:57:40;1.10;;;0.70;;
10715;SDS011;5409;42.620;23.316;2023-04-15T10:00:10;3.63;;;0.98;;
10715;SDS011;5409;42.620;23.316;2023-04-15T10:02:38;2.05;;;0.80;;
10715;SDS011;5409;42.620;23.316;2023-04-15T10:05:06;2.20;;;0.70;;
10715;SDS011;5409;42.620;23.316;2023-04-15T10:07:35;1.67;;;0.80;;
10715;SDS011;5409;42.620;23.316;2023-04-15T10:10:03;1.27;;;0.80;;
10715;SDS011;5409;42.620;23.316;2023-04-15T10:12:31;2.03;;;0.70;;
10715;SDS011;5409;42.620;23.316;2023-04-15T10:15:00;1.35;;;0.93;;
10715;SDS011;5409;42.620;23.316;2023-04-15T10:17:31;3.38;;;0.85;;
10715;SDS011;5409;42.620;23.316;2023-04-15T10:19:59;1.25;;;0.80;;
10715;SDS011;5409;42.620;23.316;2023-04-15T10:22:27;0.70;;;0.60;;
10715;SDS011;5409;42.620;23.316;2023-04-15T10:24:54;1.08;;;0.80;;
10715;SDS011;5409;42.620;23.316;2023-04-15T10:27:21;1.15;;;0.75;;
10715;SDS011;5409;42.620;23.316;2023-04-15T10:29:49;1.33;;;0.80;;
10715;SDS011;5409;42.620;23.316;2023-04-15T10:32:17;2.90;;;1.52;;
10715;SDS011;5409;42.620;23.316;2023-04-15T10:34:47;1.70;;;0.68;;
10715;SDS011;5409;42.620;23.316;2023-04-15T10:37:19;1.40;;;1.13;;
10715;SDS011;5409;42.620;23.316;2023-04-15T10:39:46;1.30;;;0.73;;
10715;SDS011;5409;42.620;23.316;2023-04-15T10:42:14;2.08;;;0.85;;
10715;SDS011;5409;42.620;23.316;2023-04-15T10:44:42;1.00;;;0.80;;
10715;SDS011;5409;42.620;23.316;2023-04-15T10:47:11;1.05;;;0.90;;
10715;SDS011;5409;42.620;23.316;2023-04-15T10:49:43;1.45;;;0.75;;
10715;SDS011;5409;42.620;23.316;2023-04-15T10:52:12;1.58;;;0.75;;
10715;SDS011;5409;42.620;23.316;2023-04-15T10:54:41;2.55;;;1.10;;
10715;SDS011;5409;42.620;23.316;2023-04-15T10:57:08;1.52;;;0.90;;
10715;SDS011;5409;42.620;23.316;2023-04-15T11:02:37;1.02;;;0.70;;
10715;SDS011;5409;42.620;23.316;2023-04-15T11:05:05;3.17;;;0.73;;
10715;SDS011;5409;42.620;23.316;2023-04-15T11:07:34;0.77;;;0.68;;
10715;SDS011;5409;42.620;23.316;2023-04-15T11:13:23;2.22;;;0.80;;
10715;SDS011;5409;42.620;23.316;2023-04-15T11:15:56;1.55;;;0.75;;
10715;SDS011;5409;42.620;23.316;2023-04-15T11:18:26;2.20;;;0.80;;
10715;SDS011;5409;42.620;23.316;2023-04-15T11:20:55;1.58;;;1.05;;
10715;SDS011;5409;42.620;23.316;2023-04-15T11:23:29;1.88;;;0.90;;
10715;SDS011;5409;42.620;23.316;2023-04-15T11:25:58;1.52;;;1.02;;
10715;SDS011;5409;42.620;23.316;2023-04-15T11:28:26;2.38;;;1.13;;
10715;SDS011;5409;42.620;23.316;2023-04-15T11:30:54;1.77;;;0.73;;
10715;SDS011;5409;42.620;23.316;2023-04-15T11:33:22;0.80;;;0.80;;
10715;SDS011;5409;42.620;23.316;2023-04-15T11:35:50;0.75;;;0.50;;
10715;SDS011;5409;42.620;23.316;2023-04-15T11:38:18;1.55;;;0.60;;
10715;SDS011;5409;42.620;23.316;2023-04-15T11:40:47;1.90;;;0.80;;
10715;SDS011;5409;42.620;23.316;2023-04-15T11:43:14;1.88;;;0.82;;
10715;SDS011;5409;42.620;23.316;2023-04-15T11:45:48;2.15;;;1.00;;
10715;SDS011;5409;42.620;23.316;2023-04-15T11:48:19;1.15;;;1.00;;
10715;SDS011;5409;42.620;23.316;2023-04-15T11:50:51;1.15;;;1.05;;
10715;SDS011;5409;42.620;23.316;2023-04-15T11:53:19;1.88;;;1.00;;
10715;SDS011;5409;42.620;23.316;2023-04-15T11:55:48;1.02;;;0.80;;
10715;SDS011;5409;42.620;23.316;2023-04-15T11:58:16;2.25;;;0.85;;
10715;SDS011;5409;42.620;23.316;2023-04-15T12:00:47;1.35;;;0.75;;
10715;SDS011;5409;42.620;23.316;2023-04-15T12:03:17;1.25;;;0.80;;
10715;SDS011;5409;42.620;23.316;2023-04-15T12:06:04;0.85;;;0.70;;
10715;SDS011;5409;42.620;23.316;2023-04-15T12:11:43;2.35;;;1.00;;
10715;SDS011;5409;42.620;23.316;2023-04-15T12:16:53;2.50;;;0.98;;
10715;SDS011;5409;42.620;23.316;2023-04-15T12:19:22;3.30;;;0.65;;
10715;SDS011;5409;42.620;23.316;2023-04-15T12:21:50;1.75;;;0.90;;
10715;SDS011;5409;42.620;23.316;2023-04-15T12:24:20;2.53;;;0.90;;
10715;SDS011;5409;42.620;23.316;2023-04-15T12:26:50;1.85;;;1.10;;
10715;SDS011;5409;42.620;23.316;2023-04-15T12:29:18;2.35;;;0.85;;
10715;SDS011;5409;42.620;23.316;2023-04-15T12:31:45;2.10;;;0.90;;
10715;SDS011;5409;42.620;23.316;2023-04-15T12:34:16;1.67;;;0.70;;
10715;SDS011;5409;42.620;23.316;2023-04-15T12:36:44;1.05;;;0.75;;
10715;SDS011;5409;42.620;23.316;2023-04-15T12:39:11;2.72;;;1.10;;
10715;SDS011;5409;42.620;23.316;2023-04-15T12:41:38;3.75;;;1.75;;
10715;SDS011;5409;42.620;23.316;2023-04-15T12:44:06;4.93;;;2.10;;
10715;SDS011;5409;42.620;23.316;2023-04-15T12:46:33;2.65;;;1.02;;
10715;SDS011;5409;42.620;23.316;2023-04-15T12:49:00;1.55;;;0.95;;
10715;SDS011;5409;42.620;23.316;2023-04-15T12:51:27;1.73;;;0.70;;
10715;SDS011;5409;42.620;23.316;2023-04-15T12:53:54;1.65;;;0.63;;
10715;SDS011;5409;42.620;23.316;2023-04-15T12:56:20;1.52;;;0.80;;
10715;SDS011;5409;42.620;23.316;2023-04-15T12:58:48;1.35;;;0.90;;
10715;SDS011;5409;42.620;23.316;2023-04-15T13:01:16;1.60;;;0.80;;
10715;SDS011;5409;42.620;23.316;2023-04-15T13:03:44;4.30;;;0.80;;
10715;SDS011;5409;42.620;23.316;2023-04-15T13:06:10;1.73;;;0.80;;
10715;SDS011;5409;42.620;23.316;2023-04-15T13:08:37;2.63;;;1.60;;
10715;SDS011;5409;42.620;23.316;2023-04-15T13:11:04;1.13;;;0.80;;
10715;SDS011;5409;42.620;23.316;2023-04-15T13:13:31;1.40;;;0.85;;
10715;SDS011;5409;42.620;23.316;2023-04-15T13:15:58;0.80;;;0.80;;
10715;SDS011;5409;42.620;23.316;2023-04-15T13:18:27;1.98;;;0.73;;
10715;SDS011;5409;42.620;23.316;2023-04-15T13:20:55;2.25;;;0.68;;
10715;SDS011;5409;42.620;23.316;2023-04-15T13:23:22;1.27;;;0.50;;
10715;SDS011;5409;42.620;23.316;2023-04-15T13:25:48;0.85;;;0.82;;
10715;SDS011;5409;42.620;23.316;2023-04-15T13:28:15;0.82;;;0.65;;
10715;SDS011;5409;42.620;23.316;2023-04-15T13:30:42;3.30;;;0.90;;
10715;SDS011;5409;42.620;23.316;2023-04-15T13:33:10;1.67;;;0.75;;
10715;SDS011;5409;42.620;23.316;2023-04-15T13:35:39;0.95;;;0.77;;
10715;SDS011;5409;42.620;23.316;2023-04-15T13:38:06;0.85;;;0.85;;
10715;SDS011;5409;42.620;23.316;2023-04-15T13:40:33;2.40;;;0.70;;
10715;SDS011;5409;42.620;23.316;2023-04-15T13:43:00;1.35;;;0.50;;
10715;SDS011;5409;42.620;23.316;2023-04-15T13:45:27;1.23;;;0.80;;
10715;SDS011;5409;42.620;23.316;2023-04-15T13:47:54;1.05;;;0.70;;
10715;SDS011;5409;42.620;23.316;2023-04-15T13:50:21;0.88;;;0.60;;
10715;SDS011;5409;42.620;23.316;2023-04-15T13:52:49;1.40;;;0.60;;
10715;SDS011;5409;42.620;23.316;2023-04-15T13:55:15;2.70;;;0.90;;
10715;SDS011;5409;42.620;23.316;2023-04-15T13:57:42;1.67;;;0.80;;
10715;SDS011;5409;42.620;23.316;2023-04-15T14:00:10;1.42;;;0.70;;
10715;SDS011;5409;42.620;23.316;2023-04-15T14:02:38;1.23;;;0.93;;
10715;SDS011;5409;42.620;23.316;2023-04-15T14:05:05;1.27;;;0.80;;
10715;SDS011;5409;42.620;23.316;2023-04-15T14:07:32;1.95;;;0.80;;
10715;SDS011;5409;42.620;23.316;2023-04-15T14:10:00;1.30;;;0.77;;
10715;SDS011;5409;42.620;23.316;2023-04-15T14:12:28;1.00;;;0.65;;
10715;SDS011;5409;42.620;23.316;2023-04-15T14:14:55;3.17;;;0.80;;
10715;SDS011;5409;42.620;23.316;2023-04-15T14:17:21;0.60;;;0.60;;
10715;SDS011;5409;42.620;23.316;2023-04-15T14:19:48;2.08;;;0.52;;
10715;SDS011;5409;42.620;23.316;2023-04-15T14:22:15;2.55;;;0.82;;
10715;SDS011;5409;42.620;23.316;2023-04-15T14:24:43;6.38;;;1.50;;
10715;SDS011;5409;42.620;23.316;2023-04-15T14:27:11;1.85;;;0.95;;
10715;SDS011;5409;42.620;23.316;2023-04-15T14:29:37;1.50;;;0.80;;
10715;SDS011;5409;42.620;23.316;2023-04-15T14:32:04;3.40;;;0.70;;
10715;SDS011;5409;42.620;23.316;2023-04-15T14:34:32;1.73;;;0.70;;
10715;SDS011;5409;42.620;23.316;2023-04-15T14:36:58;3.90;;;1.00;;
10715;SDS011;5409;42.620;23.316;2023-04-15T14:39:25;0.95;;;0.70;;
10715;SDS011;5409;42.620;23.316;2023-04-15T14:41:52;2.58;;;0.90;;
10715;SDS011;5409;42.620;23.316;2023-04-15T14:44:21;1.33;;;0.70;;
10715;SDS011;5409;42.620;23.316;2023-04-15T14:46:48;1.70;;;0.65;;
10715;SDS011;5409;42.620;23.316;2023-04-15T14:49:14;2.60;;;0.60;;
10715;SDS011;5409;42.620;23.316;2023-04-15T14:51:41;2.28;;;0.70;;
10715;SDS011;5409;42.620;23.316;2023-04-15T14:54:08;1.55;;;0.70;;
10715;SDS011;5409;42.620;23.316;2023-04-15T14:56:34;2.13;;;0.73;;
10715;SDS011;5409;42.620;23.316;2023-04-15T14:59:01;1.55;;;0.80;;
10715;SDS011;5409;42.620;23.316;2023-04-15T15:01:29;1.00;;;0.70;;
10715;SDS011;5409;42.620;23.316;2023-04-15T15:03:56;1.60;;;0.82;;